createdAt,value
2023-04-06T00:00:53.153Z,100887.15
2023-04-06T00:03:22.964Z,100886.15
2023-04-06T00:05:55.177Z,100884.13
2023-04-06T00:08:25.160Z,100882.11
2023-04-06T00:10:54.734Z,100881.38
2023-04-06T00:13:23.516Z,100882.30
2023-04-06T00:15:56.156Z,100881.98
2023-04-06T00:18:26.130Z,100883.52
2023-04-06T00:20:56.936Z,100879.39
2023-04-06T00:23:28.865Z,100879.92
2023-04-06T00:26:24.896Z,100876.05
2023-04-06T00:28:57.044Z,100874.42
2023-04-06T00:31:27.788Z,100872.80
2023-04-06T00:33:57.507Z,100873.90
2023-04-06T00:36:27.740Z,100873.64
2023-04-06T00:38:58.486Z,100872.92
2023-04-06T00:41:30.606Z,100869.84
2023-04-06T00:47:42.963Z,100870.14
2023-04-06T00:50:12.192Z,100866.00
2023-04-06T00:52:42.795Z,100866.39
2023-04-06T00:55:12.679Z,100865.16
2023-04-06T00:57:44.164Z,100867.12
2023-04-06T01:00:14.215Z,100867.39
2023-04-06T01:02:46.652Z,100863.61
2023-04-06T01:05:20.236Z,100863.60
2023-04-06T01:07:58.399Z,100859.96
2023-04-06T01:10:30.512Z,100862.34
2023-04-06T01:13:08.465Z,100867.56
2023-04-06T01:15:53.640Z,100864.79
2023-04-06T01:18:29.058Z,100862.27
2023-04-06T01:21:09.996Z,100864.02
2023-04-06T01:23:39.403Z,100862.13
2023-04-06T01:26:08.772Z,100858.61
2023-04-06T01:28:38.894Z,100856.50
2023-04-06T01:31:19.141Z,100857.80
2023-04-06T01:33:52.289Z,100858.89
2023-04-06T01:36:24.053Z,100863.52
2023-04-06T01:39:00.442Z,100862.34
2023-04-06T01:41:35.034Z,100854.84
2023-04-06T01:44:04.753Z,100854.23
2023-04-06T01:46:36.193Z,100846.23
2023-04-06T01:49:06.736Z,100850.41
2023-04-06T01:51:41.368Z,100849.09
2023-04-06T01:54:14.387Z,100846.77
2023-04-06T01:57:05.504Z,100846.99
2023-04-06T01:59:41.664Z,100847.55
2023-04-06T02:02:18.567Z,100849.86
2023-04-06T02:04:57.477Z,100853.23
2023-04-06T02:07:28.682Z,100853.97
2023-04-06T02:09:58.730Z,100855.48
2023-04-06T02:12:35.639Z,100856.85
2023-04-06T02:15:06.421Z,100855.08
2023-04-06T02:17:35.891Z,100850.34
2023-04-06T02:20:10.372Z,100846.94
2023-04-06T02:22:40.460Z,100843.06
2023-04-06T02:25:10.284Z,100841.20
2023-04-06T02:27:39.063Z,100844.63
2023-04-06T02:30:11.243Z,100842.16
2023-04-06T02:32:40.253Z,100841.65
2023-04-06T02:35:13.912Z,100844.20
2023-04-06T02:37:44.264Z,100845.13
2023-04-06T02:40:15.358Z,100841.75
2023-04-06T02:42:44.651Z,100842.21
2023-04-06T02:45:15.872Z,100842.64
2023-04-06T02:47:48.879Z,100843.03
2023-04-06T02:50:19.257Z,100845.31
2023-04-06T02:52:55.322Z,100845.02
2023-04-06T02:55:26.928Z,100842.54
2023-04-06T02:57:58.111Z,100841.58
2023-04-06T03:00:32.139Z,100843.45
2023-04-06T03:03:04.890Z,100843.29
2023-04-06T03:05:34.645Z,100844.08
2023-04-06T03:08:06.812Z,100848.52
2023-04-06T03:10:44.554Z,100849.14
2023-04-06T03:13:14.238Z,100846.52
2023-04-06T03:15:53.285Z,100848.66
2023-04-06T03:18:28.154Z,100851.35
2023-04-06T03:21:00.014Z,100853.07
2023-04-06T03:23:40.533Z,100848.88
2023-04-06T03:26:10.366Z,100853.92
2023-04-06T03:28:40.618Z,100852.09
2023-04-06T03:31:09.580Z,100854.97
2023-04-06T03:33:58.652Z,100855.08
2023-04-06T03:36:39.846Z,100856.80
2023-04-06T03:39:08.918Z,100856.95
2023-04-06T03:41:40.557Z,100855.86
2023-04-06T03:44:22.516Z,100855.28
2023-04-06T03:46:53.144Z,100855.25
2023-04-06T03:49:24.481Z,100859.16
2023-04-06T03:51:54.324Z,100858.65
2023-04-06T03:54:26.454Z,100861.15
2023-04-06T03:56:56.823Z,100863.64
2023-04-06T03:59:29.489Z,100865.06
2023-04-06T04:02:00.922Z,100865.39
2023-04-06T04:04:31.148Z,100863.12
2023-04-06T04:07:00.915Z,100867.55
2023-04-06T04:09:29.986Z,100865.46
2023-04-06T04:11:58.943Z,100870.27
2023-04-06T04:14:29.664Z,100869.23
2023-04-06T04:17:05.344Z,100867.67
2023-04-06T04:19:34.100Z,100869.56
2023-04-06T04:22:06.327Z,100870.83
2023-04-06T04:24:37.443Z,100866.42
2023-04-06T04:27:10.984Z,100868.18
2023-04-06T04:29:41.550Z,100865.53
2023-04-06T04:32:13.018Z,100868.33
2023-04-06T04:34:42.767Z,100867.47
2023-04-06T04:37:15.858Z,100866.64
2023-04-06T04:39:57.230Z,100863.84
2023-04-06T04:42:26.545Z,100869.25
2023-04-06T04:44:57.782Z,100868.61
2023-04-06T04:47:35.583Z,100869.73
2023-04-06T04:50:06.593Z,100867.80
2023-04-06T04:52:39.180Z,100872.11
2023-04-06T04:55:24.827Z,100875.23
2023-04-06T04:57:58.479Z,100878.70
2023-04-06T05:00:47.925Z,100877.86
2023-04-06T05:03:24.314Z,100879.36
2023-04-06T05:06:05.889Z,100870.91
2023-04-06T05:08:37.885Z,100871.61
2023-04-06T05:11:08.625Z,100870.33
2023-04-06T05:13:40.870Z,100867.14
2023-04-06T05:16:14.435Z,100863.39
2023-04-06T05:18:43.202Z,100866.65
2023-04-06T05:21:13.031Z,100868.00
2023-04-06T05:24:30.778Z,100868.13
2023-04-06T05:27:01.583Z,100871.98
2023-04-06T05:29:32.314Z,100871.73
2023-04-06T05:32:07.137Z,100863.27
2023-04-06T05:34:36.608Z,100864.02
2023-04-06T05:37:08.315Z,100868.32
2023-04-06T05:39:38.444Z,100867.13
2023-04-06T05:42:09.413Z,100867.89
2023-04-06T05:44:51.973Z,100863.05
2023-04-06T05:47:20.985Z,100860.64
2023-04-06T05:49:54.409Z,100859.19
2023-04-06T05:52:30.945Z,100861.34
2023-04-06T05:55:02.609Z,100857.73
2023-04-06T05:57:33.380Z,100858.82
2023-04-06T06:00:02.765Z,100863.81
2023-04-06T06:02:43.662Z,100860.40
2023-04-06T06:05:18.307Z,100858.44
2023-04-06T06:07:51.737Z,100857.70
2023-04-06T06:10:23.959Z,100857.02
2023-04-06T06:12:55.333Z,100858.77
2023-04-06T06:15:26.161Z,100861.80
2023-04-06T06:17:55.154Z,100859.69
2023-04-06T06:20:24.955Z,100860.30
2023-04-06T06:22:54.321Z,100854.11
2023-04-06T06:25:28.053Z,100853.70
2023-04-06T06:28:01.949Z,100853.27
2023-04-06T06:30:32.655Z,100846.89
2023-04-06T06:33:03.763Z,100841.31
2023-04-06T06:35:33.785Z,100846.25
2023-04-06T06:38:07.074Z,100843.53
2023-04-06T06:40:36.769Z,100841.64
2023-04-06T06:43:08.331Z,100836.75
2023-04-06T06:45:57.375Z,100836.66
2023-04-06T06:48:28.493Z,100841.06
2023-04-06T06:50:57.300Z,100838.56
2023-04-06T06:53:27.506Z,100835.84
2023-04-06T06:55:57.770Z,100835.21
2023-04-06T06:58:26.910Z,100831.39
2023-04-06T07:00:59.040Z,100833.98
2023-04-06T07:03:29.159Z,100832.59
2023-04-06T07:05:58.739Z,100836.98
2023-04-06T07:08:31.576Z,100834.09
2023-04-06T07:11:02.409Z,100834.52
2023-04-06T07:13:32.996Z,100829.75
2023-04-06T07:16:07.956Z,100823.63
2023-04-06T07:18:37.498Z,100825.48
2023-04-06T07:21:09.118Z,100820.84
2023-04-06T07:23:40.698Z,100822.98
2023-04-06T07:26:39.356Z,100821.70
2023-04-06T07:29:08.506Z,100822.12
2023-04-06T07:31:38.805Z,100821.30
2023-04-06T07:34:09.479Z,100820.79
2023-04-06T07:36:39.442Z,100814.89
2023-04-06T07:39:10.880Z,100813.58
2023-04-06T07:41:41.077Z,100814.68
2023-04-06T07:44:11.356Z,100813.11
2023-04-06T07:46:41.689Z,100805.18
2023-04-06T07:49:13.251Z,100809.86
2023-04-06T07:51:42.091Z,100815.12
2023-04-06T07:54:11.778Z,100815.40
2023-04-06T07:56:42.627Z,100819.31
2023-04-06T07:59:12.837Z,100820.31
2023-04-06T08:01:43.916Z,100820.97
2023-04-06T08:04:15.837Z,100819.51
2023-04-06T08:06:45.273Z,100819.34
2023-04-06T08:09:14.317Z,100819.03
2023-04-06T08:11:46.076Z,100821.42
2023-04-06T08:14:15.292Z,100819.14
2023-04-06T08:16:45.633Z,100815.95
2023-04-06T08:19:14.551Z,100819.42
2023-04-06T08:21:43.809Z,100826.07
2023-04-06T08:24:14.517Z,100810.89
2023-04-06T08:26:44.548Z,100803.14
2023-04-06T08:29:14.662Z,100798.23
2023-04-06T08:31:46.686Z,100803.13
2023-04-06T08:34:18.401Z,100804.45
2023-04-06T08:36:48.290Z,100803.63
2023-04-06T08:39:18.476Z,100805.84
2023-04-06T08:41:48.499Z,100802.50
2023-04-06T08:44:18.468Z,100803.04
2023-04-06T08:46:48.974Z,100806.23
2023-04-06T08:49:20.486Z,100807.20
2023-04-06T08:51:50.907Z,100810.30
2023-04-06T08:54:20.680Z,100811.03
2023-04-06T08:56:51.754Z,100809.64
2023-04-06T08:59:22.131Z,100809.96
2023-04-06T09:01:53.791Z,100810.90
2023-04-06T09:04:23.541Z,100811.60
2023-04-06T09:06:53.967Z,100809.30
2023-04-06T09:09:26.500Z,100808.03
2023-04-06T09:11:56.415Z,100807.95
2023-04-06T09:14:36.731Z,100801.52
2023-04-06T09:17:07.795Z,100800.24
2023-04-06T09:19:48.852Z,100798.71
2023-04-06T09:22:19.584Z,100798.77
2023-04-06T09:24:56.275Z,100797.96
2023-04-06T09:27:32.317Z,100793.51
2023-04-06T09:30:08.826Z,100791.52
2023-04-06T09:32:50.407Z,100791.09
2023-04-06T09:35:24.018Z,100791.02
2023-04-06T09:37:53.723Z,100788.22
2023-04-06T09:40:23.649Z,100786.56
2023-04-06T09:42:53.321Z,100789.33
2023-04-06T09:45:23.516Z,100790.85
2023-04-06T09:47:55.410Z,100797.05
2023-04-06T09:50:26.741Z,100789.95
2023-04-06T09:52:56.028Z,100782.23
2023-04-06T09:55:29.917Z,100780.55
2023-04-06T09:58:04.780Z,100774.52
2023-04-06T10:00:37.954Z,100776.77
2023-04-06T10:03:27.785Z,100780.39
2023-04-06T10:06:02.193Z,100776.63
2023-04-06T10:08:33.596Z,100769.46
2023-04-06T10:11:05.675Z,100762.21
2023-04-06T10:13:35.537Z,100754.63
2023-04-06T10:16:08.001Z,100761.95
2023-04-06T10:18:38.290Z,100762.20
2023-04-06T10:21:12.822Z,100758.03
2023-04-06T10:23:43.516Z,100755.54
2023-04-06T10:26:17.843Z,100753.91
2023-04-06T10:28:48.483Z,100761.64
2023-04-06T10:31:26.354Z,100759.40
2023-04-06T10:33:58.004Z,100757.52
2023-04-06T10:36:28.914Z,100756.91
2023-04-06T10:39:01.127Z,100756.61
2023-04-06T10:41:36.390Z,100754.48
2023-04-06T10:44:07.472Z,100748.83
2023-04-06T10:46:38.483Z,100749.75
2023-04-06T10:49:15.675Z,100739.05
2023-04-06T10:51:47.391Z,100735.20
2023-04-06T10:54:18.730Z,100737.95
2023-04-06T10:56:49.150Z,100731.94
2023-04-06T10:59:23.887Z,100729.36
2023-04-06T11:01:53.277Z,100734.23
2023-04-06T11:04:22.417Z,100731.18
2023-04-06T11:06:53.998Z,100728.40
2023-04-06T11:09:27.810Z,100728.92
2023-04-06T11:11:59.047Z,100730.86
2023-04-06T11:14:28.408Z,100728.52
2023-04-06T11:16:59.455Z,100729.27
2023-04-06T11:19:29.368Z,100721.88
2023-04-06T11:22:08.772Z,100716.65
2023-04-06T11:24:38.524Z,100722.62
2023-04-06T11:27:07.829Z,100720.36
2023-04-06T11:29:39.418Z,100719.90
2023-04-06T11:32:10.361Z,100723.27
2023-04-06T11:34:42.196Z,100719.25
2023-04-06T11:37:13.418Z,100712.14
2023-04-06T11:39:53.072Z,100707.97
2023-04-06T11:42:25.709Z,100708.50
2023-04-06T11:44:55.978Z,100704.52
2023-04-06T11:48:18.723Z,100699.45
2023-04-06T11:56:16.558Z,100687.73
2023-04-06T12:29:05.291Z,100669.54
2023-04-06T12:32:34.901Z,100665.62
2023-04-06T12:35:40.838Z,100659.62
2023-04-06T12:38:54.790Z,100662.85
2023-04-06T12:42:19.430Z,100661.44
2023-04-06T12:45:43.388Z,100659.27
2023-04-06T12:49:12.880Z,100658.26
2023-04-06T12:52:47.254Z,100660.15
2023-04-06T12:56:28.209Z,100662.39
2023-04-06T13:00:01.929Z,100659.36
2023-04-06T13:03:39.500Z,100653.67
2023-04-06T13:07:16.195Z,100647.02
2023-04-06T13:10:43.658Z,100643.07
2023-04-06T13:14:13.505Z,100638.95
2023-04-06T13:17:46.182Z,100635.80
2023-04-06T13:21:48.055Z,100631.46
2023-04-06T13:25:23.626Z,100624.99
2023-04-06T13:28:50.193Z,100614.34
2023-04-06T13:32:22.517Z,100614.36
2023-04-06T14:20:32.108Z,100579.89
2023-04-06T14:24:09.745Z,100579.26
2023-04-06T14:35:36.681Z,100569.57
2023-04-06T14:38:59.364Z,100572.27
2023-04-06T14:42:36.104Z,100575.81
2023-04-06T14:49:31.474Z,100567.05
2023-04-06T14:56:59.760Z,100567.88
2023-04-06T15:00:31.189Z,100568.40
2023-04-06T15:03:50.040Z,100565.70
2023-04-06T15:07:23.331Z,100563.13
2023-04-06T15:18:20.238Z,100562.83
2023-04-06T15:25:40.049Z,100548.82
2023-04-06T15:29:08.846Z,100546.14
2023-04-06T15:57:53.419Z,100525.98
2023-04-06T16:05:24.396Z,100520.98
2023-04-06T16:31:20.933Z,100503.13
2023-04-06T16:34:55.227Z,100511.02
2023-04-06T16:38:41.214Z,100510.38
2023-04-06T16:42:17.696Z,100515.22
2023-04-06T16:45:55.189Z,100512.59
2023-04-06T16:53:48.643Z,100519.81
2023-04-06T16:57:25.365Z,100520.34
2023-04-06T17:01:02.801Z,100525.00
2023-04-06T17:37:28.471Z,100528.31
2023-04-06T17:41:00.553Z,100527.89
2023-04-06T17:44:32.082Z,100526.25
2023-04-06T17:48:02.730Z,100534.19
2023-04-06T17:51:34.132Z,100528.01
2023-04-06T17:55:11.259Z,100528.93
2023-04-06T17:58:40.920Z,100531.89
2023-04-06T18:02:10.664Z,100532.29
2023-04-06T18:09:41.373Z,100528.88
2023-04-06T18:13:17.858Z,100528.77
2023-04-06T18:27:15.089Z,100541.06
2023-04-06T18:31:03.700Z,100545.70
2023-04-06T18:35:10.556Z,100545.59
2023-04-06T18:45:27.519Z,100553.56
2023-04-06T18:48:51.095Z,100557.05
2023-04-06T18:52:26.084Z,100548.14
2023-04-06T18:55:56.371Z,100545.13
2023-04-06T18:59:27.498Z,100540.28
2023-04-06T19:02:58.334Z,100536.27
2023-04-06T19:06:22.911Z,100535.13
2023-04-06T19:09:47.010Z,100535.06
2023-04-06T19:13:18.427Z,100541.03
2023-04-06T19:16:45.127Z,100542.02
2023-04-06T19:20:10.120Z,100543.36
2023-04-06T19:23:33.078Z,100544.14
2023-04-06T19:27:01.068Z,100550.38
2023-04-06T19:30:33.658Z,100551.16
2023-04-06T19:52:55.114Z,100531.46
2023-04-06T19:56:24.911Z,100526.72
2023-04-06T19:59:55.229Z,100524.61
2023-04-06T20:03:17.568Z,100523.32
2023-04-06T20:06:47.517Z,100525.38
2023-04-06T20:10:18.678Z,100523.52
2023-04-06T20:13:42.419Z,100525.13
2023-04-06T20:17:17.990Z,100522.33
2023-04-06T20:20:47.626Z,100515.61
2023-04-06T20:24:18.937Z,100516.36
2023-04-06T20:27:42.614Z,100516.17
2023-04-06T20:31:18.620Z,100514.87
2023-04-06T20:34:48.499Z,100509.50
2023-04-06T20:38:24.332Z,100507.76
2023-04-06T20:42:02.286Z,100502.85
2023-04-06T20:45:27.789Z,100503.27
2023-04-06T20:48:57.935Z,100500.14
2023-04-06T20:55:53.953Z,100497.08
2023-04-06T20:59:27.131Z,100493.73
2023-04-06T21:02:57.549Z,100493.84
2023-04-06T21:06:34.210Z,100488.43
2023-04-06T21:10:07.406Z,100486.44
2023-04-06T21:13:37.700Z,100485.23
2023-04-06T21:17:07.417Z,100479.40
2023-04-06T21:20:38.188Z,100473.72
2023-04-06T21:24:07.784Z,100468.67
2023-04-06T21:27:38.594Z,100469.67
2023-04-06T22:10:00.780Z,100444.14
2023-04-06T22:13:34.589Z,100440.67
2023-04-06T22:17:05.071Z,100429.61
2023-04-06T22:20:38.342Z,100423.60
2023-04-06T22:24:09.030Z,100413.25
2023-04-06T22:27:31.282Z,100409.67
2023-04-06T22:31:04.263Z,100409.21
2023-04-06T22:34:36.036Z,100407.79
2023-04-06T22:38:10.328Z,100412.46
2023-04-06T22:41:40.853Z,100411.06
2023-04-06T22:45:03.210Z,100413.48
2023-04-06T22:52:00.321Z,100403.73
2023-04-06T22:55:29.942Z,100400.13
2023-04-06T22:59:03.861Z,100389.23
2023-04-06T23:02:41.514Z,100383.30
2023-04-06T23:06:17.366Z,100384.31
2023-04-06T23:09:42.334Z,100373.56
2023-04-06T23:13:02.087Z,100374.06
2023-04-06T23:16:22.863Z,100368.27
2023-04-06T23:19:46.695Z,100377.94
2023-04-06T23:23:18.756Z,100378.14
2023-04-06T23:26:37.177Z,100377.88
2023-04-06T23:30:08.679Z,100368.14
2023-04-06T23:33:39.024Z,100365.35
2023-04-06T23:44:06.736Z,100358.04
